createdAt,value
2023-05-21T00:00:21.094Z,22.20
2023-05-21T00:02:52.505Z,18.50
2023-05-21T00:05:22.980Z,21.90
2023-05-21T00:07:55.045Z,22.90
2023-05-21T00:10:25.560Z,17.50
2023-05-21T00:12:56.077Z,19.70
2023-05-21T00:15:26.538Z,19.10
2023-05-21T00:17:57.042Z,21.30
2023-05-21T00:20:29.354Z,18.50
2023-05-21T00:22:59.799Z,18.40
2023-05-21T00:25:30.094Z,21.40
2023-05-21T00:28:00.623Z,17.10
2023-05-21T00:30:31.010Z,16.20
2023-05-21T00:33:03.163Z,17.00
2023-05-21T00:35:33.796Z,15.60
2023-05-21T00:38:04.720Z,16.40
2023-05-21T00:40:35.703Z,15.10
2023-05-21T00:43:06.129Z,16.00
2023-05-21T00:45:37.395Z,15.90
2023-05-21T00:48:09.028Z,17.20
2023-05-21T00:50:40.787Z,13.90
2023-05-21T00:53:12.132Z,15.70
2023-05-21T00:55:43.168Z,16.80
2023-05-21T00:58:14.235Z,16.90
2023-05-21T01:00:44.684Z,13.40
2023-05-21T01:03:16.567Z,13.80
2023-05-21T01:05:48.849Z,17.80
2023-05-21T01:08:20.852Z,16.20
2023-05-21T01:10:51.593Z,15.20
2023-05-21T01:13:23.252Z,13.30
2023-05-21T01:15:54.728Z,15.10
2023-05-21T01:18:26.155Z,16.20
2023-05-21T01:20:56.615Z,15.20
2023-05-21T01:23:27.508Z,16.20
2023-05-21T01:25:57.939Z,14.70
2023-05-21T01:28:29.970Z,16.30
2023-05-21T01:31:05.852Z,15.30
2023-05-21T01:33:42.656Z,14.90
2023-05-21T01:38:56.248Z,11.60
2023-05-21T01:41:30.031Z,13.80
2023-05-21T01:44:01.575Z,13.10
2023-05-21T01:46:34.736Z,12.80
2023-05-21T01:49:06.194Z,14.80
2023-05-21T01:51:36.935Z,13.70
2023-05-21T01:54:07.545Z,14.60
2023-05-21T01:56:38.006Z,16.90
2023-05-21T01:59:08.923Z,15.60
2023-05-21T02:01:39.355Z,12.20
2023-05-21T02:04:11.018Z,14.10
2023-05-21T02:06:41.874Z,14.30
2023-05-21T02:09:12.323Z,13.20
2023-05-21T02:11:42.708Z,13.60
2023-05-21T02:14:14.135Z,16.70
2023-05-21T02:16:44.917Z,15.30
2023-05-21T02:19:15.489Z,14.70
2023-05-21T02:21:45.982Z,11.50
2023-05-21T02:24:16.852Z,14.90
2023-05-21T02:26:48.594Z,14.50
2023-05-21T02:29:19.363Z,13.50
2023-05-21T02:31:50.988Z,17.00
2023-05-21T02:34:22.136Z,14.50
2023-05-21T02:36:53.368Z,13.30
2023-05-21T02:39:23.736Z,13.20
2023-05-21T02:41:54.774Z,12.80
2023-05-21T02:44:25.141Z,13.40
2023-05-21T02:46:55.575Z,12.50
2023-05-21T02:49:26.524Z,11.20
2023-05-21T02:51:56.886Z,14.80
2023-05-21T02:54:27.444Z,11.80
2023-05-21T02:56:57.825Z,11.40
2023-05-21T02:59:28.205Z,11.00
2023-05-21T03:01:58.562Z,13.60
2023-05-21T03:04:29.294Z,11.50
2023-05-21T03:07:02.253Z,12.40
2023-05-21T03:09:32.706Z,13.40
2023-05-21T03:12:03.400Z,12.00
2023-05-21T03:14:33.843Z,11.40
2023-05-21T03:17:06.560Z,11.80
2023-05-21T03:19:37.836Z,10.50
2023-05-21T03:22:08.544Z,10.10
2023-05-21T03:24:41.444Z,13.50
2023-05-21T03:27:12.603Z,9.70
2023-05-21T03:29:43.328Z,11.50
2023-05-21T03:32:15.835Z,11.30
2023-05-21T03:34:46.476Z,10.90
2023-05-21T03:37:19.458Z,9.50
2023-05-21T03:39:49.888Z,15.50
2023-05-21T03:42:20.402Z,10.40
2023-05-21T03:44:55.278Z,11.40
2023-05-21T03:47:44.652Z,10.80
2023-05-21T03:50:15.156Z,11.50
2023-05-21T03:52:45.525Z,9.70
2023-05-21T03:55:16.214Z,10.70
2023-05-21T03:57:46.707Z,11.80
2023-05-21T04:00:18.096Z,11.70
2023-05-21T04:02:51.425Z,16.70
2023-05-21T04:05:22.211Z,11.90
2023-05-21T04:07:53.326Z,9.90
2023-05-21T04:10:24.116Z,10.30
2023-05-21T04:12:54.606Z,10.90
2023-05-21T04:15:25.477Z,11.20
2023-05-21T04:17:55.865Z,11.30
2023-05-21T04:20:26.469Z,10.20
2023-05-21T04:22:56.980Z,10.00
2023-05-21T04:25:27.423Z,11.10
2023-05-21T04:27:57.880Z,9.00
2023-05-21T04:30:28.306Z,10.70
2023-05-21T04:33:00.373Z,10.40
2023-05-21T04:35:31.417Z,13.00
2023-05-21T04:38:04.141Z,12.00
2023-05-21T04:40:36.688Z,10.90
2023-05-21T04:43:08.209Z,10.30
2023-05-21T04:45:38.908Z,11.70
2023-05-21T04:48:09.997Z,10.80
2023-05-21T04:50:41.669Z,10.90
2023-05-21T04:53:12.263Z,9.20
2023-05-21T04:55:43.176Z,9.50
2023-05-21T04:58:13.540Z,10.00
2023-05-21T05:00:46.896Z,9.00
2023-05-21T05:03:19.214Z,11.80
2023-05-21T05:05:50.018Z,12.10
2023-05-21T05:08:20.431Z,12.90
2023-05-21T05:10:51.007Z,11.10
2023-05-21T05:13:21.420Z,13.10
2023-05-21T05:18:24.940Z,9.90
2023-05-21T05:20:55.451Z,10.10
2023-05-21T05:23:25.864Z,9.50
2023-05-21T05:25:56.363Z,9.30
2023-05-21T05:28:29.177Z,13.10
2023-05-21T05:30:59.656Z,10.90
2023-05-21T05:33:30.264Z,13.50
2023-05-21T05:36:00.665Z,10.30
2023-05-21T05:38:31.939Z,8.80
2023-05-21T05:41:02.376Z,8.60
2023-05-21T05:43:32.784Z,8.90
2023-05-21T05:46:03.649Z,10.60
2023-05-21T05:48:34.153Z,9.80
2023-05-21T05:51:05.790Z,9.20
2023-05-21T05:53:36.161Z,12.70
2023-05-21T05:56:07.549Z,9.70
2023-05-21T05:58:37.920Z,11.00
2023-05-21T06:01:15.116Z,9.60
2023-05-21T06:03:45.645Z,8.50
2023-05-21T06:06:18.883Z,7.60
2023-05-21T06:08:49.461Z,8.00
2023-05-21T06:11:19.881Z,11.00
2023-05-21T06:13:50.773Z,9.00
2023-05-21T06:16:21.507Z,8.50
2023-05-21T06:18:51.961Z,8.80
2023-05-21T06:21:22.616Z,8.60
2023-05-21T06:23:53.131Z,8.60
2023-05-21T06:26:24.070Z,9.50
2023-05-21T06:28:56.749Z,9.70
2023-05-21T06:31:28.031Z,9.70
2023-05-21T06:33:58.524Z,9.10
2023-05-21T06:36:32.377Z,7.90
2023-05-21T06:39:03.355Z,7.60
2023-05-21T06:41:36.221Z,8.60
2023-05-21T06:44:21.060Z,7.90
2023-05-21T06:47:17.637Z,6.30
2023-05-21T06:49:48.165Z,7.50
2023-05-21T06:52:18.655Z,9.40
2023-05-21T06:54:52.001Z,8.10
2023-05-21T06:57:22.790Z,8.40
2023-05-21T06:59:53.114Z,7.30
2023-05-21T07:02:23.741Z,8.30
2023-05-21T07:04:55.736Z,6.90
2023-05-21T07:07:26.127Z,6.20
2023-05-21T07:09:56.821Z,9.90
2023-05-21T07:12:27.146Z,8.60
2023-05-21T07:14:59.264Z,7.60
2023-05-21T07:17:30.682Z,9.90
2023-05-21T07:20:01.313Z,8.60
2023-05-21T07:22:34.254Z,7.90
2023-05-21T07:25:05.194Z,8.10
2023-05-21T07:27:36.033Z,6.90
2023-05-21T07:30:10.265Z,8.90
2023-05-21T07:32:40.908Z,7.70
2023-05-21T07:35:12.070Z,9.30
2023-05-21T07:37:42.446Z,7.20
2023-05-21T07:40:14.890Z,8.90
2023-05-21T07:42:45.689Z,7.30
2023-05-21T07:45:16.310Z,8.00
2023-05-21T07:47:48.373Z,7.80
2023-05-21T07:50:18.951Z,6.90
2023-05-21T07:52:49.464Z,6.70
2023-05-21T07:55:20.163Z,6.30
2023-05-21T07:57:52.288Z,8.60
2023-05-21T08:00:28.293Z,6.20
2023-05-21T08:02:58.779Z,7.90
2023-05-21T08:05:30.154Z,7.30
2023-05-21T08:08:01.284Z,7.60
2023-05-21T08:10:32.222Z,8.70
2023-05-21T08:13:02.765Z,5.70
2023-05-21T08:15:34.239Z,6.30
2023-05-21T08:18:05.755Z,6.70
2023-05-21T08:20:36.604Z,8.70
2023-05-21T08:23:07.009Z,6.00
2023-05-21T08:25:43.304Z,5.60
2023-05-21T08:28:14.305Z,8.80
2023-05-21T08:30:44.726Z,6.00
2023-05-21T08:33:15.281Z,7.40
2023-05-21T08:35:45.830Z,8.40
2023-05-21T08:38:23.457Z,6.50
2023-05-21T08:41:10.269Z,6.10
2023-05-21T08:43:42.161Z,6.70
2023-05-21T08:46:13.159Z,6.10
2023-05-21T08:48:45.720Z,8.10
2023-05-21T08:51:16.186Z,6.60
2023-05-21T08:53:50.818Z,7.30
2023-05-21T08:56:22.179Z,5.70
2023-05-21T08:58:57.420Z,4.70
2023-05-21T09:01:32.072Z,4.70
2023-05-21T09:04:20.228Z,8.70
2023-05-21T09:06:53.069Z,7.10
2023-05-21T09:09:41.014Z,7.10
2023-05-21T09:12:11.712Z,4.70
2023-05-21T09:14:43.663Z,5.60
2023-05-21T09:17:21.269Z,7.00
2023-05-21T09:20:13.452Z,9.60
2023-05-21T09:22:48.351Z,5.80
2023-05-21T09:25:22.248Z,3.60
2023-05-21T09:27:52.855Z,6.90
2023-05-21T09:30:26.778Z,5.10
2023-05-21T09:33:01.806Z,5.50
2023-05-21T09:35:32.228Z,7.50
2023-05-21T09:38:02.996Z,3.40
2023-05-21T09:40:36.426Z,5.70
2023-05-21T09:43:07.697Z,8.60
2023-05-21T09:45:38.452Z,6.30
2023-05-21T09:48:09.772Z,5.00
2023-05-21T09:50:41.036Z,4.80
2023-05-21T09:53:15.151Z,5.70
2023-05-21T09:55:45.454Z,7.10
2023-05-21T09:58:15.883Z,4.40
2023-05-21T10:00:47.083Z,6.10
2023-05-21T10:03:18.100Z,6.70
2023-05-21T10:05:48.550Z,6.20
2023-05-21T10:08:23.844Z,5.20
2023-05-21T10:10:54.217Z,4.10
2023-05-21T10:13:26.019Z,5.40
2023-05-21T10:16:02.399Z,5.30
2023-05-21T10:18:34.445Z,4.00
2023-05-21T10:21:07.127Z,4.80
2023-05-21T10:23:38.791Z,5.00
2023-05-21T10:26:10.278Z,5.20
2023-05-21T10:28:41.198Z,6.40
2023-05-21T10:31:12.420Z,4.90
2023-05-21T10:33:44.405Z,10.80
2023-05-21T10:36:17.264Z,2.90
2023-05-21T10:38:48.431Z,4.20
2023-05-21T10:41:21.868Z,3.80
2023-05-21T10:44:02.298Z,3.50
2023-05-21T10:46:51.078Z,6.40
2023-05-21T10:49:37.027Z,3.30
2023-05-21T10:52:20.467Z,5.10
2023-05-21T10:55:08.937Z,5.00
2023-05-21T10:57:57.644Z,5.70
2023-05-21T11:00:31.535Z,3.20
2023-05-21T11:03:03.613Z,4.60
2023-05-21T11:05:52.233Z,5.00
2023-05-21T11:08:24.731Z,4.10
2023-05-21T11:10:58.034Z,2.90
2023-05-21T11:13:31.319Z,5.30
2023-05-21T11:16:17.274Z,5.10
2023-05-21T11:19:04.187Z,2.90
2023-05-21T11:21:36.873Z,5.60
2023-05-21T11:24:13.301Z,2.80
2023-05-21T11:27:06.790Z,4.50
2023-05-21T11:29:56.561Z,4.00
2023-05-21T11:32:26.993Z,3.70
2023-05-21T11:35:03.035Z,2.70
2023-05-21T11:37:34.957Z,3.10
2023-05-21T11:40:25.750Z,3.40
2023-05-21T11:42:57.511Z,4.10
2023-05-21T11:45:33.711Z,4.30
2023-05-21T11:48:04.498Z,2.70
2023-05-21T11:50:35.910Z,4.50
2023-05-21T11:53:07.631Z,3.70
2023-05-21T11:55:43.521Z,3.80
2023-05-21T11:58:16.662Z,2.20
2023-05-21T12:00:47.241Z,2.10
2023-05-21T12:03:18.143Z,2.50
2023-05-21T12:05:49.489Z,5.40
2023-05-21T12:08:25.888Z,2.00
2023-05-21T12:11:01.918Z,3.40
2023-05-21T12:13:32.477Z,3.20
2023-05-21T12:16:05.831Z,3.10
2023-05-21T12:18:39.639Z,3.60
2023-05-21T12:21:12.533Z,3.50
2023-05-21T12:23:43.291Z,3.60
2023-05-21T12:26:14.979Z,2.90
2023-05-21T12:28:45.788Z,2.80
2023-05-21T12:31:18.686Z,6.40
2023-05-21T12:33:50.365Z,4.80
2023-05-21T12:36:27.592Z,3.70
2023-05-21T12:38:58.245Z,3.70
2023-05-21T12:41:29.002Z,1.80
2023-05-21T12:44:00.508Z,3.40
2023-05-21T12:46:30.890Z,3.70
2023-05-21T12:49:01.384Z,2.80
2023-05-21T12:51:41.688Z,2.30
2023-05-21T12:54:15.769Z,2.20
2023-05-21T12:56:49.518Z,2.70
2023-05-21T12:59:19.928Z,2.40
2023-05-21T13:01:53.007Z,3.50
2023-05-21T13:04:24.259Z,3.50
2023-05-21T13:06:54.694Z,6.40
2023-05-21T13:09:25.076Z,6.10
2023-05-21T13:11:55.813Z,4.00
2023-05-21T13:14:26.258Z,2.20
2023-05-21T13:16:56.672Z,3.90
2023-05-21T13:19:27.219Z,6.40
2023-05-21T13:21:57.829Z,2.70
2023-05-21T13:24:28.099Z,2.00
2023-05-21T13:26:58.655Z,2.80
2023-05-21T13:29:29.564Z,3.70
2023-05-21T13:31:59.944Z,2.40
2023-05-21T13:34:30.343Z,2.30
2023-05-21T13:37:00.915Z,2.30
2023-05-21T13:39:31.316Z,3.00
2023-05-21T13:42:01.700Z,4.90
2023-05-21T13:44:35.911Z,3.20
2023-05-21T13:47:07.506Z,3.80
2023-05-21T13:49:38.402Z,4.10
2023-05-21T13:52:10.228Z,4.70
2023-05-21T13:54:40.826Z,2.40
2023-05-21T13:57:11.222Z,3.80
2023-05-21T13:59:41.685Z,1.90
2023-05-21T14:02:12.804Z,4.00
2023-05-21T14:04:43.369Z,3.00
2023-05-21T14:07:13.715Z,4.50
2023-05-21T14:09:44.067Z,2.40
2023-05-21T14:12:14.334Z,4.90
2023-05-21T14:14:45.010Z,3.30
2023-05-21T14:17:15.534Z,7.70
2023-05-21T14:19:45.854Z,5.80
2023-05-21T14:22:16.292Z,6.10
2023-05-21T14:24:46.946Z,1.60
2023-05-21T14:27:17.797Z,1.80
2023-05-21T14:29:48.108Z,3.60
2023-05-21T14:32:19.298Z,3.10
2023-05-21T14:34:49.733Z,5.10
2023-05-21T14:37:20.398Z,5.30
2023-05-21T14:39:50.951Z,2.60
2023-05-21T14:42:21.330Z,3.20
2023-05-21T14:44:52.431Z,3.20
2023-05-21T14:47:23.091Z,4.40
2023-05-21T14:49:53.506Z,8.60
2023-05-21T14:52:23.898Z,4.20
2023-05-21T14:54:54.283Z,2.50
2023-05-21T14:57:24.584Z,2.60
2023-05-21T14:59:54.910Z,3.70
2023-05-21T15:02:25.584Z,2.90
2023-05-21T15:04:56.874Z,3.20
2023-05-21T15:07:27.172Z,3.20
2023-05-21T15:09:57.551Z,2.80
2023-05-21T15:12:28.174Z,4.70
2023-05-21T15:14:58.764Z,4.30
2023-05-21T15:17:29.244Z,2.00
2023-05-21T15:20:01.430Z,2.90
2023-05-21T15:22:31.946Z,2.80
2023-05-21T15:25:04.893Z,3.10
2023-05-21T15:27:35.273Z,2.20
2023-05-21T15:30:07.421Z,3.70
2023-05-21T15:32:37.737Z,4.80
2023-05-21T15:35:09.783Z,3.30
2023-05-21T15:37:40.193Z,3.90
2023-05-21T15:40:15.217Z,4.90
2023-05-21T15:42:45.592Z,5.00
2023-05-21T15:45:16.042Z,2.80
2023-05-21T15:47:46.759Z,2.20
2023-05-21T15:50:19.963Z,2.10
2023-05-21T15:52:53.025Z,2.90
2023-05-21T15:55:24.121Z,10.00
2023-05-21T15:57:54.829Z,4.40
2023-05-21T16:00:25.530Z,2.40
2023-05-21T16:02:56.110Z,3.20
2023-05-21T16:05:26.589Z,2.10
2023-05-21T16:07:56.939Z,4.80
2023-05-21T16:10:27.258Z,3.30
2023-05-21T16:12:57.620Z,4.60
2023-05-21T16:15:28.532Z,4.60
2023-05-21T16:17:58.986Z,2.10
2023-05-21T16:20:30.773Z,4.30
2023-05-21T16:23:01.141Z,5.60
2023-05-21T16:25:31.438Z,7.40
2023-05-21T16:28:01.801Z,4.20
2023-05-21T16:30:32.193Z,3.50
2023-05-21T16:33:02.832Z,4.60
2023-05-21T16:35:33.298Z,3.30
2023-05-21T16:38:03.584Z,2.70
2023-05-21T16:40:34.057Z,7.80
2023-05-21T16:43:04.361Z,14.40
2023-05-21T16:45:40.628Z,5.40
2023-05-21T16:50:40.741Z,3.80
2023-05-21T16:53:11.480Z,2.40
2023-05-21T16:55:43.262Z,4.20
2023-05-21T16:58:14.074Z,3.80
2023-05-21T17:00:44.492Z,8.50
2023-05-21T17:03:15.164Z,5.40
2023-05-21T17:05:45.821Z,5.30
2023-05-21T17:08:16.249Z,2.80
2023-05-21T17:10:46.700Z,2.90
2023-05-21T17:13:22.358Z,2.40
2023-05-21T17:15:53.987Z,3.50
2023-05-21T17:18:24.505Z,3.50
2023-05-21T17:20:56.006Z,2.00
2023-05-21T17:23:26.438Z,7.80
2023-05-21T17:25:56.738Z,2.70
2023-05-21T17:28:27.086Z,4.00
2023-05-21T17:30:57.433Z,3.80
2023-05-21T17:33:28.122Z,2.30
2023-05-21T17:35:58.431Z,1.70
2023-05-21T17:38:28.785Z,3.10
2023-05-21T17:41:00.005Z,5.10
2023-05-21T17:43:31.948Z,2.80
2023-05-21T17:46:02.481Z,4.10
2023-05-21T17:48:32.816Z,3.10
2023-05-21T17:51:03.405Z,5.10
2023-05-21T17:53:33.679Z,4.70
2023-05-21T17:56:04.281Z,3.70
2023-05-21T17:58:34.634Z,2.10
2023-05-21T18:01:05.164Z,4.00
2023-05-21T18:03:35.616Z,2.40
2023-05-21T18:06:08.182Z,6.80
2023-05-21T18:08:40.117Z,2.40
2023-05-21T18:11:10.514Z,4.80
2023-05-21T18:13:40.907Z,2.90
2023-05-21T18:16:11.623Z,4.10
2023-05-21T18:18:42.086Z,2.60
2023-05-21T18:21:12.802Z,2.60
2023-05-21T18:23:43.223Z,3.10
2023-05-21T18:26:13.650Z,3.50
2023-05-21T18:28:43.992Z,7.00
2023-05-21T18:31:15.578Z,3.40
2023-05-21T18:33:45.938Z,4.00
2023-05-21T18:36:17.306Z,2.30
2023-05-21T18:38:48.414Z,2.30
2023-05-21T18:41:19.822Z,7.10
2023-05-21T18:43:50.164Z,4.20
2023-05-21T18:46:20.585Z,3.60
2023-05-21T18:48:50.929Z,3.30
2023-05-21T18:51:21.391Z,4.60
2023-05-21T18:53:51.739Z,4.30
2023-05-21T18:56:22.830Z,2.50
2023-05-21T18:58:53.263Z,3.20
2023-05-21T19:01:23.755Z,6.00
2023-05-21T19:03:54.203Z,3.20
2023-05-21T19:06:25.637Z,2.00
2023-05-21T19:08:56.171Z,5.90
2023-05-21T19:11:31.055Z,2.40
2023-05-21T19:14:01.681Z,2.90
2023-05-21T19:16:32.079Z,6.00
2023-05-21T19:19:03.324Z,2.10
2023-05-21T19:21:34.127Z,3.60
2023-05-21T19:24:05.818Z,5.60
2023-05-21T19:26:36.621Z,4.90
2023-05-21T19:29:07.012Z,4.60
2023-05-21T19:31:39.146Z,2.20
2023-05-21T19:34:10.866Z,4.60
2023-05-21T19:36:52.284Z,3.00
2023-05-21T19:39:24.086Z,3.20
2023-05-21T19:41:54.609Z,2.90
2023-05-21T19:44:25.036Z,3.00
2023-05-21T19:46:56.044Z,4.50
2023-05-21T19:49:26.358Z,4.20
2023-05-21T19:51:58.211Z,2.50
2023-05-21T19:54:28.568Z,2.10
2023-05-21T19:56:58.941Z,4.40
2023-05-21T19:59:29.385Z,8.10
2023-05-21T20:01:59.933Z,4.60
2023-05-21T20:04:30.385Z,7.30
2023-05-21T20:07:00.902Z,3.30
2023-05-21T20:09:31.360Z,3.30
2023-05-21T20:12:02.024Z,2.60
2023-05-21T20:14:34.288Z,3.20
2023-05-21T20:17:06.248Z,3.60
2023-05-21T20:19:37.795Z,5.40
2023-05-21T20:22:08.879Z,4.60
2023-05-21T20:24:39.211Z,3.40
2023-05-21T20:27:09.764Z,5.60
2023-05-21T20:29:42.916Z,4.20
2023-05-21T20:32:13.877Z,3.70
2023-05-21T20:35:01.540Z,5.40
2023-05-21T20:37:33.846Z,5.40
2023-05-21T20:40:07.062Z,3.20
2023-05-21T20:42:37.389Z,6.40
2023-05-21T20:45:09.206Z,6.10
2023-05-21T20:47:39.599Z,6.30
2023-05-21T20:50:12.230Z,3.30
2023-05-21T20:52:45.513Z,3.20
2023-05-21T20:55:17.479Z,3.50
2023-05-21T20:57:48.338Z,3.40
2023-05-21T21:00:19.373Z,5.80
2023-05-21T21:02:49.939Z,3.30
2023-05-21T21:05:21.682Z,4.50
2023-05-21T21:07:55.485Z,3.90
2023-05-21T21:10:26.196Z,6.70
2023-05-21T21:12:56.608Z,3.30
2023-05-21T21:15:27.131Z,4.60
2023-05-21T21:17:57.524Z,5.70
2023-05-21T21:20:27.880Z,3.90
2023-05-21T21:22:58.331Z,3.50
2023-05-21T21:25:28.650Z,3.10
2023-05-21T21:27:59.035Z,2.90
2023-05-21T21:30:29.368Z,4.70
2023-05-21T21:32:59.923Z,7.10
2023-05-21T21:35:30.564Z,2.40
2023-05-21T21:38:01.440Z,4.30
2023-05-21T21:40:31.788Z,4.90
2023-05-21T21:43:02.254Z,5.80
2023-05-21T21:45:32.781Z,3.70
2023-05-21T21:48:03.199Z,3.50
2023-05-21T21:50:33.546Z,4.30
2023-05-21T21:53:03.913Z,5.20
2023-05-21T21:55:34.254Z,6.00
2023-05-21T21:58:04.583Z,3.60
2023-05-21T22:00:34.954Z,3.70
2023-05-21T22:03:05.437Z,3.80
2023-05-21T22:05:35.812Z,4.70
2023-05-21T22:08:06.669Z,6.10
2023-05-21T22:10:38.241Z,6.90
2023-05-21T22:13:09.148Z,4.70
2023-05-21T22:15:39.689Z,6.10
2023-05-21T22:18:12.064Z,3.30
2023-05-21T22:20:43.615Z,2.90
2023-05-21T22:23:14.105Z,4.40
2023-05-21T22:25:45.423Z,5.50
2023-05-21T22:28:15.828Z,4.00
2023-05-21T22:30:46.787Z,6.70
2023-05-21T22:33:17.201Z,5.50
2023-05-21T22:35:47.629Z,8.40
2023-05-21T22:38:18.690Z,5.30
2023-05-21T22:40:49.057Z,3.70
2023-05-21T22:43:19.440Z,4.40
2023-05-21T22:45:49.758Z,3.10
2023-05-21T22:48:22.043Z,3.30
2023-05-21T22:50:53.514Z,4.60
2023-05-21T22:53:24.696Z,3.60
2023-05-21T22:55:55.133Z,3.30
2023-05-21T22:58:25.615Z,3.80
2023-05-21T23:00:55.972Z,6.80
2023-05-21T23:03:26.773Z,4.80
2023-05-21T23:05:57.215Z,4.80
2023-05-21T23:08:27.633Z,3.60
2023-05-21T23:10:58.016Z,5.30
2023-05-21T23:13:28.331Z,5.10
2023-05-21T23:15:59.547Z,3.40
2023-05-21T23:18:29.982Z,9.10
2023-05-21T23:21:00.433Z,3.90
2023-05-21T23:23:30.806Z,2.90
2023-05-21T23:26:01.335Z,4.60
2023-05-21T23:28:31.656Z,3.60
2023-05-21T23:31:02.045Z,2.80
2023-05-21T23:33:32.416Z,3.40
2023-05-21T23:36:02.781Z,3.70
2023-05-21T23:38:33.109Z,3.20
2023-05-21T23:41:03.462Z,3.70
2023-05-21T23:43:34.039Z,5.10
2023-05-21T23:46:04.511Z,3.40
2023-05-21T23:48:34.870Z,4.70
2023-05-21T23:51:06.523Z,3.40
2023-05-21T23:53:36.869Z,3.40
2023-05-21T23:56:07.952Z,3.10
2023-05-21T23:58:38.329Z,3.60
